createdAt,value
2022-08-27T00:00:21.509Z,100.00
2022-08-27T00:05:58.843Z,100.00
2022-08-27T00:11:29.875Z,100.00
2022-08-27T00:17:04.326Z,100.00
2022-08-27T00:25:30.399Z,100.00
2022-08-27T00:30:58.764Z,100.00
2022-08-27T00:33:49.465Z,100.00
2022-08-27T00:39:31.595Z,100.00
2022-08-27T00:42:23.864Z,100.00
2022-08-27T00:48:05.331Z,100.00
2022-08-27T00:53:38.277Z,100.00
2022-08-27T00:59:11.061Z,100.00
2022-08-27T01:04:38.504Z,100.00
2022-08-27T01:10:17.258Z,100.00
2022-08-27T01:15:47.154Z,100.00
2022-08-27T01:21:21.860Z,100.00
2022-08-27T01:27:13.750Z,100.00
2022-08-27T01:32:48.661Z,100.00
2022-08-27T01:38:30.387Z,100.00
2022-08-27T01:43:51.485Z,100.00
2022-08-27T01:46:40.789Z,100.00
2022-08-27T01:52:13.716Z,100.00
2022-08-27T01:58:04.198Z,99.57
2022-08-27T02:03:56.558Z,100.00
2022-08-27T02:06:45.906Z,100.00
2022-08-27T02:12:24.077Z,100.00
2022-08-27T02:17:53.708Z,100.00
2022-08-27T02:23:55.783Z,100.00
2022-08-27T02:26:44.583Z,100.00
2022-08-27T02:32:24.344Z,100.00
2022-08-27T02:35:10.569Z,100.00
2022-08-27T02:40:49.177Z,100.00
2022-08-27T02:46:26.720Z,100.00
2022-08-27T02:49:15.979Z,100.00
2022-08-27T02:52:05.716Z,100.00
2022-08-27T02:57:37.064Z,100.00
2022-08-27T03:03:13.760Z,100.00
2022-08-27T03:08:54.546Z,100.00
2022-08-27T03:11:49.146Z,100.00
2022-08-27T03:17:45.374Z,100.00
2022-08-27T03:23:22.248Z,100.00
2022-08-27T03:28:54.064Z,100.00
2022-08-27T03:34:29.805Z,100.00
2022-08-27T03:40:08.061Z,100.00
2022-08-27T03:42:56.257Z,100.00
2022-08-27T03:51:17.137Z,100.00
2022-08-27T03:56:53.421Z,100.00
2022-08-27T04:02:31.359Z,100.00
2022-08-27T04:05:22.267Z,100.00
2022-08-27T04:10:51.300Z,100.00
2022-08-27T04:16:30.364Z,100.00
2022-08-27T04:22:07.837Z,100.00
2022-08-27T04:24:57.482Z,100.00
2022-08-27T04:30:36.176Z,100.00
2022-08-27T04:33:25.061Z,100.00
2022-08-27T04:38:52.607Z,100.00
2022-08-27T04:44:31.496Z,100.00
2022-08-27T04:47:20.248Z,100.00
2022-08-27T04:52:55.920Z,100.00
2022-08-27T04:58:30.099Z,100.00
2022-08-27T05:04:03.266Z,100.00
2022-08-27T05:09:39.931Z,100.00
2022-08-27T05:15:14.619Z,100.00
2022-08-27T05:21:02.962Z,100.00
2022-08-27T05:26:41.882Z,100.00
2022-08-27T05:32:16.973Z,100.00
2022-08-27T05:37:49.486Z,100.00
2022-08-27T05:40:40.498Z,100.00
2022-08-27T05:46:25.232Z,100.00
2022-08-27T05:49:16.264Z,100.00
2022-08-27T05:52:07.865Z,100.00
2022-08-27T05:54:58.314Z,100.00
2022-08-27T06:01:02.218Z,100.00
2022-08-27T06:03:48.313Z,100.00
2022-08-27T06:09:22.982Z,100.00
2022-08-27T06:14:52.262Z,100.00
2022-08-27T06:17:42.903Z,100.00
2022-08-27T06:28:41.305Z,99.46
2022-08-27T06:31:29.994Z,97.97
2022-08-27T06:37:45.630Z,98.12
2022-08-27T06:43:25.221Z,99.62
2022-08-27T06:46:27.522Z,99.49
2022-08-27T06:51:56.692Z,99.12
2022-08-27T06:57:28.535Z,96.02
2022-08-27T07:05:26.275Z,97.81
2022-08-27T07:08:14.770Z,98.68
2022-08-27T07:19:11.340Z,97.31
2022-08-27T07:22:47.388Z,99.49
2022-08-27T07:43:22.448Z,100.00
2022-08-27T07:48:59.045Z,100.00
2022-08-27T07:54:37.194Z,99.03
2022-08-27T07:57:25.547Z,96.77
2022-08-27T08:02:55.990Z,99.01
2022-08-27T08:08:25.525Z,99.36
2022-08-27T08:14:03.776Z,95.44
2022-08-27T08:16:52.332Z,93.31
2022-08-27T08:22:34.583Z,96.47
2022-08-27T08:35:07.914Z,93.78
2022-08-27T08:40:42.730Z,91.59
2022-08-27T08:46:22.644Z,88.90
2022-08-27T08:50:03.649Z,89.49
2022-08-27T08:56:05.918Z,86.96
2022-08-27T09:31:05.366Z,85.31
2022-08-27T09:57:45.099Z,79.78
2022-08-27T10:03:24.791Z,82.26
2022-08-27T10:09:07.109Z,81.16
2022-08-27T10:14:47.466Z,82.48
2022-08-27T10:20:34.437Z,82.86
2022-08-27T10:26:08.918Z,80.75
2022-08-27T10:29:07.115Z,80.34
2022-08-27T10:34:45.235Z,79.42
2022-08-27T10:40:23.374Z,76.32
2022-08-27T10:46:03.302Z,75.48
2022-08-27T10:54:30.511Z,71.75
2022-08-27T11:02:46.554Z,73.03
2022-08-27T11:08:27.500Z,67.32
2022-08-27T11:14:01.163Z,71.72
2022-08-27T11:19:40.562Z,66.85
2022-08-27T11:25:28.797Z,65.79
2022-08-27T11:31:07.711Z,61.71
2022-08-27T11:36:59.152Z,60.58
2022-08-27T11:39:58.919Z,60.58
2022-08-27T11:45:40.501Z,61.21
2022-08-27T11:48:31.183Z,62.05
2022-08-27T11:51:33.942Z,59.03
2022-08-27T11:57:18.411Z,61.11
2022-08-27T12:03:10.996Z,62.79
2022-08-27T12:09:16.045Z,61.41
2022-08-27T12:14:46.868Z,61.49
2022-08-27T12:20:29.543Z,61.64
2022-08-27T12:23:39.280Z,62.62
2022-08-27T12:32:44.362Z,61.10
2022-08-27T12:38:25.125Z,60.06
2022-08-27T12:41:25.900Z,59.35
2022-08-27T12:47:06.005Z,60.37
2022-08-27T12:52:53.618Z,57.98
2022-08-27T13:01:34.128Z,60.66
2022-08-27T13:04:25.767Z,59.25
2022-08-27T13:09:57.422Z,60.07
2022-08-27T13:12:46.651Z,61.29
2022-08-27T13:15:36.140Z,61.63
2022-08-27T13:21:15.361Z,59.00
2022-08-27T13:26:54.672Z,57.08
2022-08-27T13:32:24.720Z,58.44
2022-08-27T13:37:54.584Z,58.17
2022-08-27T13:40:55.457Z,59.15
2022-08-27T13:46:31.632Z,57.10
2022-08-27T13:52:12.506Z,56.12
2022-08-27T13:57:51.908Z,55.88
2022-08-27T14:03:34.549Z,56.06
2022-08-27T14:09:18.431Z,59.15
2022-08-27T14:14:50.319Z,54.39
2022-08-27T14:20:27.055Z,57.90
2022-08-27T14:28:36.806Z,61.14
2022-08-27T14:34:08.201Z,63.76
2022-08-27T14:39:45.342Z,65.77
2022-08-27T14:45:18.088Z,66.31
2022-08-27T14:48:07.944Z,64.81
2022-08-27T14:53:37.170Z,66.10
2022-08-27T14:56:28.866Z,65.92
2022-08-27T15:02:01.703Z,64.60
2022-08-27T15:07:38.548Z,62.32
2022-08-27T15:10:29.709Z,61.83
2022-08-27T15:13:19.390Z,60.81
2022-08-27T15:16:10.547Z,61.19
2022-08-27T15:21:48.711Z,59.50
2022-08-27T15:27:22.420Z,60.71
2022-08-27T15:32:58.138Z,61.12
2022-08-27T15:35:47.474Z,62.33
2022-08-27T15:41:27.203Z,62.27
2022-08-27T15:47:00.240Z,64.97
2022-08-27T15:52:40.810Z,65.35
2022-08-27T15:55:30.364Z,64.83
2022-08-27T16:01:16.080Z,66.67
2022-08-27T16:06:53.876Z,66.67
2022-08-27T16:12:26.818Z,67.73
2022-08-27T16:17:56.299Z,68.43
2022-08-27T16:23:37.324Z,71.16
2022-08-27T16:29:12.122Z,73.52
2022-08-27T16:34:49.408Z,73.11
2022-08-27T16:40:26.979Z,72.32
2022-08-27T16:46:07.510Z,72.73
2022-08-27T16:49:13.371Z,73.42
2022-08-27T16:54:45.784Z,72.89
2022-08-27T16:57:36.294Z,73.02
2022-08-27T17:03:06.250Z,72.62
2022-08-27T17:05:55.712Z,71.79
2022-08-27T17:11:39.227Z,70.13
2022-08-27T17:14:28.029Z,70.58
2022-08-27T17:20:05.287Z,71.53
2022-08-27T17:22:54.055Z,72.94
2022-08-27T17:28:25.382Z,76.65
2022-08-27T17:31:17.412Z,77.54
2022-08-27T17:36:54.654Z,77.03
2022-08-27T17:42:27.911Z,80.21
2022-08-27T17:48:14.144Z,80.84
2022-08-27T17:53:40.953Z,81.63
2022-08-27T17:59:20.457Z,81.62
2022-08-27T18:02:09.406Z,82.36
2022-08-27T18:04:58.027Z,82.86
2022-08-27T18:10:28.573Z,85.59
2022-08-27T18:16:05.263Z,85.51
2022-08-27T18:21:49.240Z,86.51
2022-08-27T18:30:07.253Z,88.26
2022-08-27T18:32:56.320Z,87.30
2022-08-27T18:38:42.671Z,87.58
2022-08-27T18:41:34.486Z,88.50
2022-08-27T18:47:43.252Z,85.53
2022-08-27T18:53:14.391Z,86.82
2022-08-27T19:02:26.775Z,87.75
2022-08-27T19:08:02.207Z,89.00
2022-08-27T19:10:51.073Z,89.50
2022-08-27T19:16:33.241Z,89.19
2022-08-27T19:19:29.874Z,89.13
2022-08-27T19:25:30.085Z,90.44
2022-08-27T19:31:26.801Z,91.25
2022-08-27T19:40:57.016Z,91.79
2022-08-27T19:46:27.302Z,91.93
2022-08-27T19:52:35.055Z,92.66
2022-08-27T19:55:36.744Z,93.66
2022-08-27T19:58:26.945Z,94.68
2022-08-27T20:01:16.888Z,94.90
2022-08-27T20:06:46.964Z,95.89
2022-08-27T20:12:25.955Z,97.20
2022-08-27T20:15:14.564Z,97.88
2022-08-27T20:23:47.093Z,100.00
2022-08-27T20:29:39.387Z,100.00
2022-08-27T20:35:30.579Z,100.00
2022-08-27T20:38:28.450Z,100.00
2022-08-27T20:44:19.587Z,100.00
2022-08-27T20:50:01.853Z,100.00
2022-08-27T20:52:55.444Z,100.00
2022-08-27T20:58:58.131Z,100.00
2022-08-27T21:01:47.467Z,100.00
2022-08-27T21:07:25.256Z,100.00
2022-08-27T21:10:14.329Z,100.00
2022-08-27T21:13:05.326Z,100.00
2022-08-27T21:16:08.071Z,100.00
2022-08-27T21:18:56.675Z,100.00
2022-08-27T21:24:54.814Z,100.00
2022-08-27T21:30:33.414Z,100.00
2022-08-27T21:33:23.075Z,100.00
2022-08-27T21:36:12.473Z,100.00
2022-08-27T21:41:48.728Z,100.00
2022-08-27T21:47:48.440Z,100.00
2022-08-27T21:50:42.411Z,100.00
2022-08-27T21:56:20.335Z,100.00
2022-08-27T22:02:00.994Z,100.00
2022-08-27T22:07:33.705Z,100.00
2022-08-27T22:13:08.354Z,100.00
2022-08-27T22:18:46.671Z,100.00
2022-08-27T22:21:36.984Z,100.00
2022-08-27T22:27:29.514Z,100.00
2022-08-27T22:30:20.653Z,100.00
2022-08-27T22:35:54.315Z,100.00
2022-08-27T22:38:44.986Z,100.00
2022-08-27T22:44:20.631Z,100.00
2022-08-27T22:47:10.990Z,100.00
2022-08-27T22:52:46.184Z,100.00
2022-08-27T22:58:24.585Z,100.00
2022-08-27T23:03:53.792Z,100.00
2022-08-27T23:09:27.906Z,100.00
2022-08-27T23:12:16.436Z,100.00
2022-08-27T23:17:49.366Z,100.00
2022-08-27T23:23:17.317Z,100.00
2022-08-27T23:28:56.280Z,100.00
2022-08-27T23:34:25.479Z,100.00
2022-08-27T23:39:57.235Z,100.00
2022-08-27T23:45:33.462Z,100.00
2022-08-27T23:48:22.913Z,100.00
2022-08-27T23:51:11.857Z,100.00
